LVCNG SADF-SAZM
Flight info
| Callsign | LVCNG |
|---|---|
| Flight time | N/A |
| Altitude | 10000 |
| Route | GBE W31 VOTRA |
| Aircraft | PA31/L-SDG/C |
Departure
| Time | 2026-04-26 21:50 |
|---|---|
| Airport | San Fernando Airport (SADF) |
Arrival
| Time | N/A |
|---|---|
| Airport | Ástor Piazzola International Airport (SAZM) |
| Time | Latitude | Longitude | Altitude | Speed | Heading |
|---|---|---|---|---|---|
| 2026-04-26 21:31 | -34.45583 | -58.58416 | 14 ft | 0 kts | 241° |
| 2026-04-26 21:33 | -34.45583 | -58.58415 | 14 ft | 0 kts | 241° |
| 2026-04-26 21:39 | -34.45583 | -58.58416 | 14 ft | 0 kts | 241° |
| 2026-04-26 21:42 | -34.45566 | -58.58445 | 14 ft | 9 kts | 328° |
| 2026-04-26 21:42 | -34.45515 | -58.58384 | 14 ft | 14 kts | 62° |
| 2026-04-26 21:42 | -34.45467 | -58.58271 | 14 ft | 15 kts | 61° |
| 2026-04-26 21:42 | -34.45426 | -58.58177 | 14 ft | 11 kts | 62° |
| 2026-04-26 21:43 | -34.45398 | -58.58111 | 14 ft | 7 kts | 63° |
| 2026-04-26 21:43 | -34.45371 | -58.58047 | 14 ft | 10 kts | 64° |
| 2026-04-26 21:43 | -34.45325 | -58.58007 | 14 ft | 10 kts | 333° |
| 2026-04-26 21:43 | -34.45259 | -58.58053 | 14 ft | 12 kts | 329° |
| 2026-04-26 21:44 | -34.45183 | -58.58106 | 14 ft | 13 kts | 331° |
| 2026-04-26 21:44 | -34.45099 | -58.58163 | 14 ft | 14 kts | 328° |
| 2026-04-26 21:44 | -34.45012 | -58.58225 | 14 ft | 14 kts | 329° |
| 2026-04-26 21:44 | -34.44934 | -58.58282 | 14 ft | 11 kts | 325° |
| 2026-04-26 21:45 | -34.44897 | -58.58315 | 14 ft | 0 kts | 315° |
| 2026-04-26 21:46 | -34.44896 | -58.58315 | 14 ft | 0 kts | 315° |
| 2026-04-26 21:47 | -34.44896 | -58.58316 | 14 ft | 0 kts | 315° |
| 2026-04-26 21:48 | -34.44867 | -58.58357 | 14 ft | 11 kts | 307° |
| 2026-04-26 21:48 | -34.44870 | -58.58401 | 14 ft | 0 kts | 225° |
| 2026-04-26 21:49 | -34.44880 | -58.58413 | 14 ft | 14 kts | 225° |
| 2026-04-26 21:49 | -34.45110 | -58.58682 | 14 ft | 78 kts | 224° |
| 2026-04-26 21:49 | -34.45583 | -58.59245 | 85 ft | 108 kts | 224° |
| 2026-04-26 21:49 | -34.46140 | -58.59910 | 311 ft | 115 kts | 224° |
| 2026-04-26 21:50 | -34.46704 | -58.60546 | 575 ft | 108 kts | 221° |
| 2026-04-26 21:50 | -34.47284 | -58.61150 | 672 ft | 112 kts | 218° |
| 2026-04-26 21:50 | -34.47899 | -58.61699 | 784 ft | 110 kts | 213° |
| 2026-04-26 21:50 | -34.48527 | -58.62220 | 900 ft | 109 kts | 218° |
| 2026-04-26 21:51 | -34.49220 | -58.62477 | 1012 ft | 107 kts | 169° |
| 2026-04-26 21:51 | -34.49939 | -58.62386 | 1150 ft | 104 kts | 191° |
| 2026-04-26 21:51 | -34.50643 | -58.62549 | 1289 ft | 102 kts | 188° |
| 2026-04-26 21:51 | -34.51348 | -58.62670 | 1413 ft | 102 kts | 188° |
| 2026-04-26 21:52 | -34.52052 | -58.62789 | 1537 ft | 102 kts | 188° |
| 2026-04-26 21:52 | -34.52745 | -58.62971 | 1652 ft | 103 kts | 184° |
| 2026-04-26 21:52 | -34.53460 | -58.62969 | 1744 ft | 106 kts | 178° |
| 2026-04-26 21:52 | -34.54202 | -58.62938 | 1834 ft | 108 kts | 178° |
| 2026-04-26 21:53 | -34.54957 | -58.62905 | 1936 ft | 109 kts | 178° |
| 2026-04-26 21:53 | -34.55715 | -58.62872 | 2039 ft | 109 kts | 178° |
| 2026-04-26 21:53 | -34.56479 | -58.62838 | 2141 ft | 110 kts | 178° |
| 2026-04-26 21:53 | -34.57246 | -58.62805 | 2242 ft | 111 kts | 178° |
| 2026-04-26 21:54 | -34.58016 | -58.62771 | 2343 ft | 111 kts | 178° |
| 2026-04-26 21:54 | -34.58789 | -58.62737 | 2444 ft | 111 kts | 178° |
| 2026-04-26 21:54 | -34.59563 | -58.62704 | 2545 ft | 112 kts | 178° |
| 2026-04-26 21:54 | -34.60339 | -58.62670 | 2645 ft | 111 kts | 178° |
| 2026-04-26 21:55 | -34.61100 | -58.62613 | 2741 ft | 111 kts | 170° |
| 2026-04-26 21:55 | -34.61838 | -58.62338 | 2843 ft | 111 kts | 165° |
| 2026-04-26 21:55 | -34.62589 | -58.62136 | 2944 ft | 110 kts | 169° |
| 2026-04-26 21:55 | -34.63343 | -58.61956 | 3044 ft | 111 kts | 169° |
| 2026-04-26 21:56 | -34.64098 | -58.61776 | 3144 ft | 111 kts | 169° |
| 2026-04-26 21:56 | -34.64855 | -58.61597 | 3244 ft | 111 kts | 169° |
| 2026-04-26 21:56 | -34.65611 | -58.61417 | 3344 ft | 111 kts | 169° |
| 2026-04-26 21:56 | -34.66372 | -58.61252 | 3445 ft | 111 kts | 170° |
| 2026-04-26 21:57 | -34.67124 | -58.61090 | 3544 ft | 111 kts | 170° |
| 2026-04-26 21:57 | -34.67889 | -58.60925 | 3646 ft | 113 kts | 170° |
| 2026-04-26 21:57 | -34.68671 | -58.60756 | 3759 ft | 115 kts | 170° |
| 2026-04-26 21:57 | -34.69464 | -58.60585 | 3886 ft | 116 kts | 170° |
| 2026-04-26 21:58 | -34.70262 | -58.60413 | 4014 ft | 117 kts | 170° |
| 2026-04-26 21:58 | -34.70804 | -58.60296 | 4100 ft | 118 kts | 170° |
| 2026-04-26 21:58 | -34.71113 | -58.60230 | 4149 ft | 118 kts | 170° |
| 2026-04-26 21:58 | -34.71929 | -58.60054 | 4279 ft | 120 kts | 170° |
| 2026-04-26 21:59 | -34.72758 | -58.59875 | 4409 ft | 122 kts | 170° |
| 2026-04-26 21:59 | -34.73602 | -58.59690 | 4540 ft | 124 kts | 169° |
| 2026-04-26 21:59 | -34.74458 | -58.59475 | 4672 ft | 127 kts | 168° |
| 2026-04-26 21:59 | -34.75320 | -58.59252 | 4804 ft | 130 kts | 168° |
| 2026-04-26 22:00 | -34.76217 | -58.59019 | 4938 ft | 134 kts | 168° |
| 2026-04-26 22:00 | -34.77140 | -58.58780 | 5072 ft | 138 kts | 168° |
| 2026-04-26 22:00 | -34.78094 | -58.58559 | 5207 ft | 142 kts | 170° |
| 2026-04-26 22:00 | -34.79077 | -58.58363 | 5338 ft | 144 kts | 171° |
| 2026-04-26 22:01 | -34.80071 | -58.58170 | 5465 ft | 145 kts | 171° |
| 2026-04-26 22:01 | -34.81060 | -58.57978 | 5587 ft | 143 kts | 171° |
| 2026-04-26 22:01 | -34.82044 | -58.57787 | 5710 ft | 143 kts | 171° |
| 2026-04-26 22:01 | -34.83010 | -58.57600 | 5832 ft | 142 kts | 171° |
| 2026-04-26 22:02 | -34.83988 | -58.57410 | 5957 ft | 142 kts | 171° |
| 2026-04-26 22:02 | -34.84965 | -58.57221 | 6081 ft | 142 kts | 171° |
| 2026-04-26 22:02 | -34.85942 | -58.57031 | 6206 ft | 142 kts | 171° |
| 2026-04-26 22:02 | -34.86920 | -58.56842 | 6331 ft | 142 kts | 171° |
| 2026-04-26 22:03 | -34.87897 | -58.56652 | 6456 ft | 142 kts | 171° |
| 2026-04-26 22:03 | -34.88877 | -58.56462 | 6581 ft | 143 kts | 171° |
| 2026-04-26 22:03 | -34.89858 | -58.56271 | 6706 ft | 143 kts | 171° |
| 2026-04-26 22:03 | -34.90828 | -58.56083 | 6830 ft | 143 kts | 171° |
| 2026-04-26 22:04 | -34.91813 | -58.55899 | 6955 ft | 143 kts | 172° |
| 2026-04-26 22:04 | -34.92800 | -58.55727 | 7079 ft | 143 kts | 172° |
| 2026-04-26 22:04 | -34.93780 | -58.55557 | 7201 ft | 141 kts | 172° |
| 2026-04-26 22:04 | -34.94737 | -58.55392 | 7316 ft | 137 kts | 172° |
| 2026-04-26 22:05 | -34.95671 | -58.55231 | 7432 ft | 134 kts | 172° |
| 2026-04-26 22:05 | -34.96584 | -58.55074 | 7549 ft | 131 kts | 172° |
| 2026-04-26 22:05 | -34.97474 | -58.54920 | 7664 ft | 128 kts | 172° |
| 2026-04-26 22:05 | -34.98342 | -58.54771 | 7780 ft | 124 kts | 172° |
| 2026-04-26 22:06 | -34.99178 | -58.54626 | 7885 ft | 122 kts | 172° |
| 2026-04-26 22:06 | -35.00009 | -58.54483 | 7979 ft | 120 kts | 172° |
| 2026-04-26 22:06 | -35.00830 | -58.54341 | 8074 ft | 119 kts | 172° |
| 2026-04-26 22:06 | -35.01644 | -58.54201 | 8170 ft | 117 kts | 172° |
| 2026-04-26 22:07 | -35.02447 | -58.54062 | 8265 ft | 116 kts | 172° |
| 2026-04-26 22:07 | -35.03241 | -58.53925 | 8359 ft | 114 kts | 172° |
| 2026-04-26 22:07 | -35.04024 | -58.53789 | 8452 ft | 113 kts | 172° |
| 2026-04-26 22:07 | -35.04803 | -58.53655 | 8551 ft | 113 kts | 172° |
| 2026-04-26 22:08 | -35.05583 | -58.53521 | 8651 ft | 113 kts | 172° |
| 2026-04-26 22:08 | -35.06363 | -58.53386 | 8751 ft | 113 kts | 172° |
| 2026-04-26 22:08 | -35.07134 | -58.53253 | 8850 ft | 114 kts | 172° |
| 2026-04-26 22:08 | -35.07917 | -58.53118 | 8951 ft | 114 kts | 172° |
| 2026-04-26 22:09 | -35.08703 | -58.52982 | 9052 ft | 114 kts | 172° |
| 2026-04-26 22:09 | -35.09492 | -58.52846 | 9153 ft | 115 kts | 172° |
| 2026-04-26 22:09 | -35.10285 | -58.52709 | 9255 ft | 115 kts | 172° |
| 2026-04-26 22:09 | -35.11082 | -58.52571 | 9358 ft | 116 kts | 172° |
| 2026-04-26 22:10 | -35.11887 | -58.52433 | 9461 ft | 117 kts | 172° |
| 2026-04-26 22:10 | -35.12700 | -58.52292 | 9565 ft | 119 kts | 172° |
| 2026-04-26 22:10 | -35.13522 | -58.52150 | 9670 ft | 120 kts | 172° |
| 2026-04-26 22:10 | -35.14347 | -58.52008 | 9775 ft | 122 kts | 172° |
| 2026-04-26 22:11 | -35.15196 | -58.51861 | 9882 ft | 124 kts | 172° |
| 2026-04-26 22:11 | -35.16063 | -58.51711 | 9986 ft | 128 kts | 172° |
| 2026-04-26 22:11 | -35.16975 | -58.51554 | 10019 ft | 138 kts | 172° |
| 2026-04-26 22:11 | -35.17963 | -58.51383 | 10020 ft | 149 kts | 172° |
| 2026-04-26 22:12 | -35.19018 | -58.51201 | 10013 ft | 157 kts | 172° |
| 2026-04-26 22:12 | -35.20118 | -58.51010 | 10008 ft | 162 kts | 172° |
| 2026-04-26 22:12 | -35.21245 | -58.50815 | 10005 ft | 165 kts | 172° |
| 2026-04-26 22:12 | -35.22391 | -58.50617 | 10003 ft | 167 kts | 172° |
| 2026-04-26 22:13 | -35.23533 | -58.50419 | 10002 ft | 169 kts | 172° |
| 2026-04-26 22:13 | -35.24697 | -58.50218 | 10001 ft | 169 kts | 172° |
| 2026-04-26 22:13 | -35.25862 | -58.50016 | 9999 ft | 168 kts | 172° |
| 2026-04-26 22:13 | -35.27012 | -58.49817 | 9998 ft | 166 kts | 172° |
| 2026-04-26 22:14 | -35.28157 | -58.49619 | 10000 ft | 166 kts | 172° |
| 2026-04-26 22:14 | -35.29306 | -58.49420 | 10001 ft | 167 kts | 172° |
| 2026-04-26 22:14 | -35.30457 | -58.49220 | 10000 ft | 167 kts | 172° |
| 2026-04-26 22:14 | -35.31611 | -58.49021 | 10000 ft | 168 kts | 172° |
| 2026-04-26 22:15 | -35.32769 | -58.48849 | 10000 ft | 168 kts | 173° |
| 2026-04-26 22:15 | -35.33914 | -58.48697 | 10000 ft | 168 kts | 174° |
| 2026-04-26 22:15 | -35.35074 | -58.48545 | 10000 ft | 168 kts | 174° |
| 2026-04-26 22:15 | -35.36236 | -58.48394 | 10000 ft | 168 kts | 174° |
| 2026-04-26 22:16 | -35.37397 | -58.48244 | 10000 ft | 168 kts | 174° |
| 2026-04-26 22:16 | -35.38558 | -58.48093 | 10000 ft | 168 kts | 174° |
| 2026-04-26 22:16 | -35.39719 | -58.47942 | 10000 ft | 168 kts | 174° |
| 2026-04-26 22:16 | -35.40882 | -58.47791 | 10000 ft | 168 kts | 174° |
| 2026-04-26 22:17 | -35.42042 | -58.47640 | 10000 ft | 168 kts | 174° |
| 2026-04-26 22:17 | -35.43189 | -58.47493 | 10000 ft | 168 kts | 174° |
| 2026-04-26 22:17 | -35.44354 | -58.47377 | 10000 ft | 168 kts | 175° |
| 2026-04-26 22:17 | -35.45518 | -58.47273 | 10000 ft | 168 kts | 176° |
| 2026-04-26 22:18 | -35.46683 | -58.47171 | 10000 ft | 168 kts | 175° |
| 2026-04-26 22:18 | -35.47848 | -58.47053 | 10000 ft | 168 kts | 175° |
| 2026-04-26 22:18 | -35.49008 | -58.46928 | 9999 ft | 167 kts | 175° |
| 2026-04-26 22:18 | -35.50165 | -58.46803 | 9999 ft | 167 kts | 175° |
| 2026-04-26 22:19 | -35.51318 | -58.46678 | 10000 ft | 166 kts | 175° |
| 2026-04-26 22:19 | -35.52469 | -58.46553 | 10000 ft | 166 kts | 175° |
| 2026-04-26 22:19 | -35.53619 | -58.46428 | 10000 ft | 166 kts | 175° |
| 2026-04-26 22:19 | -35.54753 | -58.46305 | 10000 ft | 166 kts | 175° |
| 2026-04-26 22:20 | -35.55902 | -58.46180 | 10000 ft | 166 kts | 175° |
| 2026-04-26 22:20 | -35.57051 | -58.46056 | 10000 ft | 166 kts | 175° |
| 2026-04-26 22:20 | -35.58199 | -58.45931 | 10000 ft | 166 kts | 175° |
| 2026-04-26 22:20 | -35.59346 | -58.45806 | 10000 ft | 166 kts | 175° |
| 2026-04-26 22:21 | -35.60493 | -58.45682 | 10000 ft | 166 kts | 175° |
| 2026-04-26 22:21 | -35.61641 | -58.45557 | 10000 ft | 166 kts | 175° |
| 2026-04-26 22:21 | -35.62789 | -58.45433 | 10000 ft | 166 kts | 175° |
| 2026-04-26 22:21 | -35.63936 | -58.45308 | 10000 ft | 166 kts | 175° |
| 2026-04-26 22:22 | -35.65085 | -58.45183 | 10000 ft | 166 kts | 175° |
| 2026-04-26 22:22 | -35.66216 | -58.45060 | 10000 ft | 166 kts | 175° |
| 2026-04-26 22:22 | -35.67364 | -58.44935 | 10000 ft | 166 kts | 175° |
| 2026-04-26 22:22 | -35.68512 | -58.44811 | 10000 ft | 166 kts | 175° |
| 2026-04-26 22:23 | -35.69658 | -58.44663 | 10000 ft | 166 kts | 172° |
| 2026-04-26 22:23 | -35.70792 | -58.44421 | 10000 ft | 166 kts | 169° |
| 2026-04-26 22:23 | -35.71925 | -58.44153 | 10000 ft | 166 kts | 169° |
| 2026-04-26 22:23 | -35.73055 | -58.43882 | 10000 ft | 166 kts | 169° |
| 2026-04-26 22:24 | -35.74186 | -58.43611 | 10000 ft | 166 kts | 169° |
| 2026-04-26 22:24 | -35.75317 | -58.43339 | 10000 ft | 166 kts | 169° |
| 2026-04-26 22:24 | -35.76433 | -58.43071 | 10000 ft | 166 kts | 169° |
| 2026-04-26 22:24 | -35.77565 | -58.42799 | 10000 ft | 166 kts | 169° |
| 2026-04-26 22:25 | -35.78695 | -58.42527 | 10000 ft | 166 kts | 169° |
| 2026-04-26 22:25 | -35.79827 | -58.42255 | 10000 ft | 166 kts | 169° |
| 2026-04-26 22:25 | -35.80958 | -58.41983 | 10000 ft | 166 kts | 169° |
| 2026-04-26 22:25 | -35.82090 | -58.41711 | 10000 ft | 166 kts | 169° |
| 2026-04-26 22:26 | -35.83221 | -58.41439 | 10000 ft | 166 kts | 169° |
| 2026-04-26 22:26 | -35.84352 | -58.41167 | 10000 ft | 166 kts | 169° |
| 2026-04-26 22:26 | -35.85484 | -58.40894 | 10000 ft | 166 kts | 169° |
| 2026-04-26 22:26 | -35.86599 | -58.40626 | 10000 ft | 166 kts | 169° |
| 2026-04-26 22:27 | -35.87730 | -58.40354 | 10000 ft | 166 kts | 169° |
| 2026-04-26 22:27 | -35.88862 | -58.40081 | 10000 ft | 166 kts | 169° |
| 2026-04-26 22:27 | -35.89993 | -58.39809 | 10000 ft | 166 kts | 169° |
| 2026-04-26 22:27 | -35.91124 | -58.39537 | 10000 ft | 166 kts | 169° |
| 2026-04-26 22:28 | -35.92256 | -58.39264 | 10000 ft | 166 kts | 169° |
| 2026-04-26 22:28 | -35.93388 | -58.38992 | 10000 ft | 166 kts | 169° |
| 2026-04-26 22:28 | -35.94519 | -58.38719 | 10000 ft | 166 kts | 169° |
| 2026-04-26 22:28 | -35.95650 | -58.38447 | 10000 ft | 166 kts | 169° |
| 2026-04-26 22:29 | -35.96782 | -58.38174 | 10000 ft | 166 kts | 169° |
| 2026-04-26 22:29 | -35.97914 | -58.37901 | 10000 ft | 166 kts | 169° |
| 2026-04-26 22:29 | -35.99030 | -58.37632 | 10000 ft | 166 kts | 169° |
| 2026-04-26 22:29 | -36.00162 | -58.37359 | 10000 ft | 166 kts | 169° |
| 2026-04-26 22:30 | -36.01293 | -58.37087 | 10000 ft | 166 kts | 169° |
| 2026-04-26 22:30 | -36.02425 | -58.36814 | 10000 ft | 166 kts | 169° |
| 2026-04-26 22:30 | -36.03555 | -58.36530 | 10000 ft | 166 kts | 167° |
| 2026-04-26 22:30 | -36.04676 | -58.36198 | 10000 ft | 166 kts | 166° |
| 2026-04-26 22:31 | -36.05795 | -58.35854 | 10000 ft | 166 kts | 166° |
| 2026-04-26 22:31 | -36.06915 | -58.35508 | 10000 ft | 166 kts | 166° |
| 2026-04-26 22:31 | -36.08033 | -58.35163 | 10000 ft | 166 kts | 166° |
| 2026-04-26 22:31 | -36.09152 | -58.34817 | 10000 ft | 166 kts | 166° |
| 2026-04-26 22:32 | -36.10255 | -58.34476 | 10000 ft | 166 kts | 166° |
| 2026-04-26 22:32 | -36.11374 | -58.34130 | 10000 ft | 166 kts | 166° |
| 2026-04-26 22:32 | -36.12492 | -58.33784 | 10000 ft | 166 kts | 166° |
| 2026-04-26 22:32 | -36.13611 | -58.33437 | 10000 ft | 166 kts | 166° |
| 2026-04-26 22:33 | -36.14730 | -58.33091 | 10000 ft | 166 kts | 166° |
| 2026-04-26 22:33 | -36.16968 | -58.32398 | 10000 ft | 166 kts | 166° |
| 2026-04-26 22:33 | -36.18087 | -58.32052 | 10000 ft | 166 kts | 166° |
| 2026-04-26 22:34 | -36.19206 | -58.31706 | 10000 ft | 166 kts | 166° |
| 2026-04-26 22:34 | -36.20310 | -58.31364 | 10000 ft | 166 kts | 166° |
| 2026-04-26 22:34 | -36.21429 | -58.31017 | 10000 ft | 166 kts | 166° |
| 2026-04-26 22:34 | -36.22548 | -58.30671 | 10000 ft | 166 kts | 166° |
| 2026-04-26 22:35 | -36.23667 | -58.30324 | 10000 ft | 166 kts | 166° |
| 2026-04-26 22:35 | -36.24787 | -58.29977 | 10000 ft | 166 kts | 166° |
| 2026-04-26 22:35 | -36.25906 | -58.29630 | 10000 ft | 166 kts | 166° |
| 2026-04-26 22:35 | -36.27024 | -58.29284 | 10000 ft | 166 kts | 166° |
| 2026-04-26 22:36 | -36.28143 | -58.28937 | 10000 ft | 166 kts | 166° |
| 2026-04-26 22:36 | -36.29262 | -58.28590 | 10000 ft | 166 kts | 166° |
| 2026-04-26 22:36 | -36.30366 | -58.28247 | 10000 ft | 166 kts | 166° |
| 2026-04-26 22:36 | -36.31486 | -58.27900 | 10000 ft | 166 kts | 166° |
| 2026-04-26 22:37 | -36.32604 | -58.27554 | 10000 ft | 166 kts | 166° |
| 2026-04-26 22:37 | -36.33724 | -58.27207 | 10000 ft | 166 kts | 166° |
| 2026-04-26 22:37 | -36.34843 | -58.26860 | 10000 ft | 166 kts | 166° |
| 2026-04-26 22:37 | -36.35960 | -58.26502 | 10000 ft | 166 kts | 165° |
| 2026-04-26 22:38 | -36.37075 | -58.26132 | 10000 ft | 166 kts | 165° |
| 2026-04-26 22:38 | -36.38189 | -58.25761 | 10000 ft | 166 kts | 165° |
| 2026-04-26 22:38 | -36.39304 | -58.25389 | 10000 ft | 166 kts | 165° |
| 2026-04-26 22:38 | -36.40418 | -58.25017 | 10000 ft | 166 kts | 165° |
| 2026-04-26 22:39 | -36.41531 | -58.24646 | 10000 ft | 166 kts | 165° |
| 2026-04-26 22:39 | -36.42631 | -58.24279 | 10000 ft | 166 kts | 165° |
| 2026-04-26 22:39 | -36.43745 | -58.23907 | 10000 ft | 166 kts | 165° |
| 2026-04-26 22:39 | -36.44860 | -58.23535 | 10000 ft | 166 kts | 165° |
| 2026-04-26 22:40 | -36.45975 | -58.23163 | 10000 ft | 166 kts | 165° |
| 2026-04-26 22:40 | -36.47090 | -58.22791 | 10000 ft | 166 kts | 165° |
| 2026-04-26 22:40 | -36.48203 | -58.22419 | 10000 ft | 166 kts | 165° |
| 2026-04-26 22:40 | -36.49318 | -58.22047 | 10000 ft | 166 kts | 165° |
| 2026-04-26 22:41 | -36.50433 | -58.21674 | 10000 ft | 166 kts | 165° |
| 2026-04-26 22:41 | -36.51547 | -58.21302 | 10000 ft | 166 kts | 165° |
| 2026-04-26 22:41 | -36.52646 | -58.20935 | 10000 ft | 166 kts | 165° |
| 2026-04-26 22:41 | -36.53761 | -58.20562 | 10000 ft | 166 kts | 165° |
| 2026-04-26 22:42 | -36.54876 | -58.20190 | 10000 ft | 166 kts | 165° |
| 2026-04-26 22:42 | -36.55990 | -58.19817 | 10000 ft | 166 kts | 165° |
| 2026-04-26 22:42 | -36.57104 | -58.19445 | 10000 ft | 166 kts | 165° |
| 2026-04-26 22:42 | -36.58219 | -58.19072 | 10000 ft | 166 kts | 165° |
| 2026-04-26 22:43 | -36.59335 | -58.18699 | 10000 ft | 166 kts | 165° |
| 2026-04-26 22:43 | -36.60450 | -58.18326 | 10000 ft | 166 kts | 165° |
| 2026-04-26 22:43 | -36.61565 | -58.17953 | 10000 ft | 166 kts | 165° |
| 2026-04-26 22:43 | -36.62679 | -58.17581 | 10000 ft | 166 kts | 165° |
| 2026-04-26 22:44 | -36.63778 | -58.17213 | 10000 ft | 166 kts | 165° |
| 2026-04-26 22:44 | -36.64894 | -58.16840 | 10000 ft | 166 kts | 165° |
| 2026-04-26 22:44 | -36.66008 | -58.16467 | 10000 ft | 166 kts | 165° |
| 2026-04-26 22:44 | -36.67122 | -58.16094 | 10000 ft | 166 kts | 165° |
| 2026-04-26 22:45 | -36.68237 | -58.15721 | 10000 ft | 166 kts | 165° |
| 2026-04-26 22:45 | -36.69352 | -58.15347 | 10000 ft | 166 kts | 165° |
| 2026-04-26 22:45 | -36.70467 | -58.14974 | 10000 ft | 166 kts | 165° |
| 2026-04-26 22:45 | -36.71582 | -58.14600 | 10000 ft | 166 kts | 165° |
| 2026-04-26 22:46 | -36.72696 | -58.14227 | 10000 ft | 166 kts | 165° |
| 2026-04-26 22:46 | -36.73812 | -58.13854 | 10000 ft | 166 kts | 165° |
| 2026-04-26 22:46 | -36.74927 | -58.13480 | 10000 ft | 166 kts | 165° |
| 2026-04-26 22:46 | -36.76041 | -58.13106 | 10000 ft | 166 kts | 165° |
| 2026-04-26 22:47 | -36.77141 | -58.12738 | 10000 ft | 166 kts | 165° |
| 2026-04-26 22:47 | -36.78256 | -58.12364 | 10000 ft | 166 kts | 165° |
| 2026-04-26 22:47 | -36.79371 | -58.11990 | 10000 ft | 166 kts | 165° |
| 2026-04-26 22:47 | -36.80486 | -58.11617 | 10000 ft | 166 kts | 165° |
| 2026-04-26 22:48 | -36.81601 | -58.11243 | 10000 ft | 166 kts | 165° |
| 2026-04-26 22:48 | -36.82716 | -58.10868 | 10000 ft | 166 kts | 165° |
| 2026-04-26 22:48 | -36.83830 | -58.10495 | 10000 ft | 166 kts | 165° |
| 2026-04-26 22:48 | -36.84945 | -58.10121 | 10000 ft | 166 kts | 165° |
| 2026-04-26 22:49 | -36.86061 | -58.09746 | 10000 ft | 166 kts | 165° |
| 2026-04-26 22:49 | -36.87176 | -58.09372 | 10000 ft | 166 kts | 165° |
| 2026-04-26 22:49 | -36.88291 | -58.08998 | 10000 ft | 166 kts | 165° |
| 2026-04-26 22:49 | -36.89392 | -58.08628 | 10000 ft | 166 kts | 165° |
| 2026-04-26 22:50 | -36.90506 | -58.08254 | 10000 ft | 166 kts | 165° |
| 2026-04-26 22:50 | -36.91622 | -58.07879 | 10000 ft | 166 kts | 165° |
| 2026-04-26 22:50 | -36.92738 | -58.07505 | 10000 ft | 166 kts | 165° |
| 2026-04-26 22:50 | -36.93852 | -58.07131 | 10000 ft | 166 kts | 165° |